createdAt,value
2022-08-10T00:00:00.480Z,1014.89
2022-08-10T00:01:00.472Z,1014.90
2022-08-10T00:02:00.555Z,1014.90
2022-08-10T00:03:00.533Z,1014.90
2022-08-10T00:04:00.452Z,1014.89
2022-08-10T00:05:00.462Z,1014.87
2022-08-10T00:06:00.813Z,1014.90
2022-08-10T00:07:00.443Z,1014.90
2022-08-10T00:08:00.500Z,1014.94
2022-08-10T00:09:00.572Z,1014.86
2022-08-10T00:10:00.426Z,1014.89
2022-08-10T00:11:00.432Z,1014.94
2022-08-10T00:12:00.422Z,1014.91
2022-08-10T00:13:00.412Z,1014.90
2022-08-10T00:14:00.623Z,1014.90
2022-08-10T00:15:00.511Z,1014.91
2022-08-10T00:16:00.368Z,1014.89
2022-08-10T00:17:00.370Z,1014.90
2022-08-10T00:18:00.352Z,1014.88
2022-08-10T00:19:00.363Z,1014.87
2022-08-10T00:20:03.269Z,1014.89
2022-08-10T00:21:00.334Z,1014.87
2022-08-10T00:22:00.330Z,1014.91
2022-08-10T00:23:00.322Z,1014.83
2022-08-10T00:24:00.834Z,1014.81
2022-08-10T00:25:00.318Z,1014.84
2022-08-10T00:26:00.327Z,1014.85
2022-08-10T00:27:49.982Z,1014.77
2022-08-10T00:28:03.099Z,1014.81
2022-08-10T00:29:00.398Z,1014.84
2022-08-10T00:30:00.281Z,1014.80
2022-08-10T00:31:00.269Z,1014.81
2022-08-10T00:32:00.270Z,1014.77
2022-08-10T00:33:00.419Z,1014.78
2022-08-10T00:34:00.285Z,1014.77
2022-08-10T00:35:00.269Z,1014.74
2022-08-10T00:36:00.568Z,1014.74
2022-08-10T00:37:00.228Z,1014.70
2022-08-10T00:38:00.682Z,1014.70
2022-08-10T00:39:00.740Z,1014.63
2022-08-10T00:40:00.737Z,1014.65
2022-08-10T00:41:00.197Z,1014.64
2022-08-10T00:42:01.942Z,1014.62
2022-08-10T00:43:00.178Z,1014.62
2022-08-10T00:44:00.188Z,1014.59
2022-08-10T00:45:00.982Z,1014.60
2022-08-10T00:46:00.529Z,1014.66
2022-08-10T00:47:00.375Z,1014.60
2022-08-10T00:48:00.840Z,1014.59
2022-08-10T00:49:00.593Z,1014.63
2022-08-10T00:50:00.176Z,1014.58
2022-08-10T00:51:00.134Z,1014.61
2022-08-10T00:52:00.378Z,1014.50
2022-08-10T00:53:00.117Z,1014.58
2022-08-10T00:54:00.507Z,1014.57
2022-08-10T00:55:00.121Z,1014.55
2022-08-10T00:57:12.372Z,1014.59
2022-08-10T00:57:15.988Z,1014.57
2022-08-10T00:58:00.086Z,1014.57
2022-08-10T00:59:00.216Z,1014.57
2022-08-10T01:00:00.694Z,1014.56
2022-08-10T01:01:00.486Z,1014.53
2022-08-10T01:02:11.188Z,1014.56
2022-08-10T01:03:00.126Z,1014.54
2022-08-10T01:04:57.774Z,1014.56
2022-08-10T01:05:01.903Z,1014.55
2022-08-10T01:06:00.026Z,1014.56
2022-08-10T01:07:00.037Z,1014.55
2022-08-10T01:08:00.097Z,1014.52
2022-08-10T01:09:00.027Z,1014.53
2022-08-10T01:10:00.109Z,1014.54
2022-08-10T01:11:00.145Z,1014.56
2022-08-10T01:12:37.408Z,1014.56
2022-08-10T01:13:00.006Z,1014.54
2022-08-10T01:13:59.983Z,1014.53
2022-08-10T01:15:00.297Z,1014.54
2022-08-10T01:15:59.946Z,1014.53
2022-08-10T01:17:00.285Z,1014.45
2022-08-10T01:17:59.946Z,1014.49
2022-08-10T01:18:59.975Z,1014.46
2022-08-10T01:19:59.936Z,1014.49
2022-08-10T01:20:59.926Z,1014.47
2022-08-10T01:21:59.922Z,1014.45
2022-08-10T01:22:59.914Z,1014.49
2022-08-10T01:24:00.173Z,1014.47
2022-08-10T01:25:00.163Z,1014.45
2022-08-10T01:26:12.329Z,1014.47
2022-08-10T01:26:59.882Z,1014.51
2022-08-10T01:28:00.019Z,1014.44
2022-08-10T01:29:00.004Z,1014.51
2022-08-10T01:29:59.888Z,1014.46
2022-08-10T01:30:59.864Z,1014.44
2022-08-10T01:31:59.985Z,1014.47
2022-08-10T01:32:59.842Z,1014.50
2022-08-10T01:34:02.647Z,1014.50
2022-08-10T01:34:59.892Z,1014.54
2022-08-10T01:35:59.817Z,1014.49
2022-08-10T01:36:59.824Z,1014.53
2022-08-10T01:37:59.813Z,1014.50
2022-08-10T01:38:59.801Z,1014.53
2022-08-10T01:39:59.813Z,1014.54
2022-08-10T01:41:00.510Z,1014.51
2022-08-10T01:41:59.798Z,1014.48
2022-08-10T01:43:07.776Z,1014.51
2022-08-10T01:43:59.807Z,1014.51
2022-08-10T01:44:59.793Z,1014.46
2022-08-10T01:46:01.724Z,1014.46
2022-08-10T01:46:59.753Z,1014.44
2022-08-10T01:47:59.921Z,1014.43
2022-08-10T01:48:59.953Z,1014.42
2022-08-10T01:49:59.743Z,1014.47
2022-08-10T01:51:00.618Z,1014.43
2022-08-10T01:52:00.371Z,1014.41
2022-08-10T01:52:59.703Z,1014.45
2022-08-10T01:54:00.202Z,1014.40
2022-08-10T01:55:00.251Z,1014.41
2022-08-10T01:55:59.681Z,1014.38
2022-08-10T01:56:59.669Z,1014.41
2022-08-10T01:58:00.201Z,1014.42
2022-08-10T01:59:00.430Z,1014.43
2022-08-10T02:00:02.309Z,1014.40
2022-08-10T02:01:00.118Z,1014.43
2022-08-10T02:01:59.638Z,1014.40
2022-08-10T02:02:59.888Z,1014.44
2022-08-10T02:04:04.522Z,1014.41
2022-08-10T02:04:59.634Z,1014.43
2022-08-10T02:05:59.599Z,1014.45
2022-08-10T02:06:59.608Z,1014.41
2022-08-10T02:07:59.619Z,1014.49
2022-08-10T02:09:06.777Z,1014.47
2022-08-10T02:09:59.674Z,1014.42
2022-08-10T02:10:59.586Z,1014.45
2022-08-10T02:12:07.299Z,1014.49
2022-08-10T02:12:59.633Z,1014.42
2022-08-10T02:13:59.600Z,1014.43
2022-08-10T02:14:59.607Z,1014.45
2022-08-10T02:16:01.500Z,1014.45
2022-08-10T02:17:00.040Z,1014.43
2022-08-10T02:18:02.112Z,1014.40
2022-08-10T02:18:59.527Z,1014.39
2022-08-10T02:19:59.876Z,1014.40
2022-08-10T02:21:00.080Z,1014.39
2022-08-10T02:22:35.221Z,1014.44
2022-08-10T02:22:59.497Z,1014.47
2022-08-10T02:24:00.439Z,1014.48
2022-08-10T02:24:59.486Z,1014.46
2022-08-10T02:25:59.697Z,1014.46
2022-08-10T02:26:59.910Z,1014.48
2022-08-10T02:27:59.608Z,1014.51
2022-08-10T02:28:59.458Z,1014.43
2022-08-10T02:29:59.453Z,1014.43
2022-08-10T02:30:59.695Z,1014.40
2022-08-10T02:31:59.994Z,1014.47
2022-08-10T02:32:59.425Z,1014.48
2022-08-10T02:33:59.599Z,1014.46
2022-08-10T02:34:59.412Z,1014.51
2022-08-10T02:35:59.437Z,1014.52
2022-08-10T02:36:59.406Z,1014.45
2022-08-10T02:37:59.465Z,1014.55
2022-08-10T02:39:01.043Z,1014.54
2022-08-10T02:39:59.806Z,1014.56
2022-08-10T02:42:18.119Z,1014.58
2022-08-10T02:45:01.110Z,1014.60
2022-08-10T02:45:18.410Z,1014.57
2022-08-10T02:45:20.242Z,1014.57
2022-08-10T02:45:20.850Z,1014.54
2022-08-10T02:45:59.364Z,1014.57
2022-08-10T02:46:59.375Z,1014.56
2022-08-10T02:47:59.563Z,1014.55
2022-08-10T02:48:59.342Z,1014.51
2022-08-10T02:50:00.284Z,1014.51
2022-08-10T02:50:59.323Z,1014.57
2022-08-10T02:52:06.584Z,1014.55
2022-08-10T02:52:59.347Z,1014.50
2022-08-10T02:53:59.292Z,1014.50
2022-08-10T02:54:59.290Z,1014.56
2022-08-10T02:55:59.291Z,1014.54
2022-08-10T02:56:59.278Z,1014.54
2022-08-10T02:58:15.344Z,1014.53
2022-08-10T02:58:59.341Z,1014.47
2022-08-10T02:59:59.243Z,1014.48
2022-08-10T03:00:59.315Z,1014.47
2022-08-10T03:01:59.503Z,1014.51
2022-08-10T03:02:59.519Z,1014.53
2022-08-10T03:03:59.221Z,1014.49
2022-08-10T03:04:59.220Z,1014.50
2022-08-10T03:05:59.210Z,1014.51
2022-08-10T03:06:59.202Z,1014.57
2022-08-10T03:07:59.233Z,1014.53
2022-08-10T03:08:59.200Z,1014.58
2022-08-10T03:09:59.170Z,1014.56
2022-08-10T03:10:59.177Z,1014.57
2022-08-10T03:12:35.660Z,1014.58
2022-08-10T03:12:59.149Z,1014.49
2022-08-10T03:13:59.731Z,1014.51
2022-08-10T03:14:59.141Z,1014.52
2022-08-10T03:15:59.151Z,1014.47
2022-08-10T03:16:59.141Z,1014.45
2022-08-10T03:17:59.202Z,1014.47
2022-08-10T03:18:59.116Z,1014.53
2022-08-10T03:20:34.807Z,1014.52
2022-08-10T03:20:59.148Z,1014.53
2022-08-10T03:21:59.108Z,1014.51
2022-08-10T03:22:59.097Z,1014.51
2022-08-10T03:23:59.088Z,1014.55
2022-08-10T03:24:59.078Z,1014.55
2022-08-10T03:25:59.730Z,1014.57
2022-08-10T03:26:59.055Z,1014.52
2022-08-10T03:27:59.072Z,1014.52
2022-08-10T03:28:59.066Z,1014.48
2022-08-10T03:30:28.477Z,1014.51
2022-08-10T03:30:59.601Z,1014.51
2022-08-10T03:31:59.028Z,1014.48
2022-08-10T03:32:59.030Z,1014.47
2022-08-10T03:33:59.014Z,1014.49
2022-08-10T03:34:59.006Z,1014.45
2022-08-10T03:36:43.072Z,1014.43
2022-08-10T03:36:59.006Z,1014.41
2022-08-10T03:37:59.738Z,1014.45
2022-08-10T03:38:58.976Z,1014.51
2022-08-10T03:39:58.976Z,1014.51
2022-08-10T03:40:58.991Z,1014.46
2022-08-10T03:41:58.985Z,1014.45
2022-08-10T03:42:59.234Z,1014.45
2022-08-10T03:43:58.947Z,1014.43
2022-08-10T03:44:58.945Z,1014.47
2022-08-10T03:45:58.934Z,1014.45
2022-08-10T03:46:58.944Z,1014.48
2022-08-10T03:47:59.583Z,1014.43
2022-08-10T03:48:59.187Z,1014.43
2022-08-10T03:49:58.904Z,1014.44
2022-08-10T03:50:58.928Z,1014.45
2022-08-10T03:51:58.921Z,1014.47
2022-08-10T03:52:58.884Z,1014.49
2022-08-10T03:54:05.854Z,1014.47
2022-08-10T03:54:58.873Z,1014.49
2022-08-10T03:56:28.289Z,1014.47
2022-08-10T03:56:58.875Z,1014.52
2022-08-10T03:57:58.853Z,1014.45
2022-08-10T03:58:59.426Z,1014.50
2022-08-10T03:59:58.831Z,1014.49
2022-08-10T04:00:58.856Z,1014.52
2022-08-10T04:02:45.529Z,1014.47
2022-08-10T04:02:59.415Z,1014.52
2022-08-10T04:04:11.583Z,1014.52
2022-08-10T04:04:58.822Z,1014.53
2022-08-10T04:05:58.792Z,1014.53
2022-08-10T04:06:59.393Z,1014.50
2022-08-10T04:07:58.778Z,1014.47
2022-08-10T04:08:58.783Z,1014.53
2022-08-10T04:09:59.015Z,1014.49
2022-08-10T04:10:58.941Z,1014.56
2022-08-10T04:11:58.980Z,1014.52
2022-08-10T04:12:58.929Z,1014.55
2022-08-10T04:13:58.752Z,1014.52
2022-08-10T04:14:58.750Z,1014.50
2022-08-10T04:15:58.759Z,1014.49
2022-08-10T04:16:58.740Z,1014.50
2022-08-10T04:18:05.892Z,1014.48
2022-08-10T04:18:58.719Z,1014.46
2022-08-10T04:19:58.719Z,1014.45
2022-08-10T04:20:58.718Z,1014.53
2022-08-10T04:21:59.459Z,1014.52
2022-08-10T04:22:58.689Z,1014.55
2022-08-10T04:23:58.676Z,1014.47
2022-08-10T04:24:59.138Z,1014.47
2022-08-10T04:25:58.668Z,1014.49
2022-08-10T04:26:58.858Z,1014.48
2022-08-10T04:27:58.659Z,1014.50
2022-08-10T04:28:58.669Z,1014.50
2022-08-10T04:29:58.679Z,1014.49
2022-08-10T04:30:58.729Z,1014.45
2022-08-10T04:31:59.619Z,1014.44
2022-08-10T04:32:58.621Z,1014.50
2022-08-10T04:33:58.727Z,1014.56
2022-08-10T04:34:59.588Z,1014.52
2022-08-10T04:35:59.494Z,1014.49
2022-08-10T04:36:58.617Z,1014.52
2022-08-10T04:37:58.577Z,1014.53
2022-08-10T04:38:58.588Z,1014.50
2022-08-10T04:39:58.906Z,1014.53
2022-08-10T04:40:58.571Z,1014.52
2022-08-10T04:41:58.597Z,1014.57
2022-08-10T04:43:01.389Z,1014.53
2022-08-10T04:43:58.604Z,1014.54
2022-08-10T04:44:58.535Z,1014.53
2022-08-10T04:45:58.527Z,1014.56
2022-08-10T04:46:59.450Z,1014.59
2022-08-10T04:48:03.051Z,1014.55
2022-08-10T04:49:01.343Z,1014.50
2022-08-10T04:49:58.505Z,1014.54
2022-08-10T04:50:59.697Z,1014.58
2022-08-10T04:51:58.904Z,1014.50
2022-08-10T04:52:58.852Z,1014.53
2022-08-10T04:54:03.991Z,1014.49
2022-08-10T04:54:58.471Z,1014.51
2022-08-10T04:55:58.453Z,1014.48
2022-08-10T04:56:58.455Z,1014.49
2022-08-10T04:57:58.453Z,1014.45
2022-08-10T04:58:58.434Z,1014.45
2022-08-10T04:59:58.426Z,1014.42
2022-08-10T05:00:58.448Z,1014.41
2022-08-10T05:02:28.023Z,1014.42
2022-08-10T05:02:58.480Z,1014.44
2022-08-10T05:04:34.699Z,1014.43
2022-08-10T05:04:59.522Z,1014.40
2022-08-10T05:05:58.382Z,1014.40
2022-08-10T05:06:58.394Z,1014.43
2022-08-10T05:07:59.184Z,1014.42
2022-08-10T05:08:58.605Z,1014.39
2022-08-10T05:10:01.474Z,1014.43
2022-08-10T05:10:58.362Z,1014.42
2022-08-10T05:11:58.421Z,1014.42
2022-08-10T05:12:58.362Z,1014.42
2022-08-10T05:13:58.351Z,1014.41
2022-08-10T05:14:58.356Z,1014.43
2022-08-10T05:15:58.331Z,1014.40
2022-08-10T05:16:59.111Z,1014.43
2022-08-10T05:18:08.227Z,1014.43
2022-08-10T05:18:58.344Z,1014.43
2022-08-10T05:20:03.277Z,1014.46
2022-08-10T05:20:58.298Z,1014.45
2022-08-10T05:22:04.228Z,1014.50
2022-08-10T05:22:58.358Z,1014.49
2022-08-10T05:23:58.270Z,1014.50
2022-08-10T05:24:58.269Z,1014.48
2022-08-10T05:25:58.357Z,1014.53
2022-08-10T05:27:00.615Z,1014.55
2022-08-10T05:28:00.957Z,1014.50
2022-08-10T05:28:58.300Z,1014.54
2022-08-10T05:30:02.515Z,1014.55
2022-08-10T05:30:58.499Z,1014.52
2022-08-10T05:31:58.209Z,1014.48
2022-08-10T05:33:01.686Z,1014.47
2022-08-10T05:33:58.238Z,1014.51
2022-08-10T05:34:58.246Z,1014.50
2022-08-10T05:35:58.463Z,1014.51
2022-08-10T05:36:58.438Z,1014.48
2022-08-10T05:38:10.301Z,1014.49
2022-08-10T05:38:58.187Z,1014.51
2022-08-10T05:39:58.217Z,1014.45
2022-08-10T05:40:58.192Z,1014.49
2022-08-10T05:41:58.138Z,1014.52
2022-08-10T05:42:58.285Z,1014.52
2022-08-10T05:43:58.768Z,1014.51
2022-08-10T05:44:58.126Z,1014.49
2022-08-10T05:46:17.521Z,1014.46
2022-08-10T05:46:58.914Z,1014.49
2022-08-10T05:48:41.732Z,1014.50
2022-08-10T05:49:01.181Z,1014.43
2022-08-10T05:49:58.084Z,1014.49
2022-08-10T05:50:58.089Z,1014.47
2022-08-10T05:51:58.069Z,1014.56
2022-08-10T05:52:58.074Z,1014.50
2022-08-10T05:54:01.059Z,1014.48
2022-08-10T05:55:02.603Z,1014.48
2022-08-10T05:55:58.045Z,1014.47
2022-08-10T05:56:58.745Z,1014.47
2022-08-10T05:57:58.455Z,1014.45
2022-08-10T05:58:58.057Z,1014.47
2022-08-10T06:00:33.383Z,1014.44
2022-08-10T06:00:58.074Z,1014.44
2022-08-10T06:02:33.316Z,1014.47
2022-08-10T06:02:58.006Z,1014.43
2022-08-10T06:03:58.087Z,1014.49
2022-08-10T06:04:58.154Z,1014.49
2022-08-10T06:05:57.984Z,1014.51
2022-08-10T06:06:57.976Z,1014.52
2022-08-10T06:07:57.965Z,1014.49
2022-08-10T06:08:57.987Z,1014.52
2022-08-10T06:09:59.165Z,1014.53
2022-08-10T06:12:24.685Z,1014.54
2022-08-10T06:12:27.317Z,1014.56
2022-08-10T06:12:58.851Z,1014.64
2022-08-10T06:14:12.935Z,1014.60
2022-08-10T06:14:59.554Z,1014.64
2022-08-10T06:15:57.913Z,1014.58
2022-08-10T06:16:58.125Z,1014.65
2022-08-10T06:18:01.573Z,1014.61
2022-08-10T06:18:57.963Z,1014.65
2022-08-10T06:19:57.883Z,1014.63
2022-08-10T06:20:57.953Z,1014.62
2022-08-10T06:22:01.363Z,1014.68
2022-08-10T06:22:58.572Z,1014.65
2022-08-10T06:23:57.992Z,1014.67
2022-08-10T06:25:27.290Z,1014.65
2022-08-10T06:26:10.670Z,1014.69
2022-08-10T06:26:57.854Z,1014.64
2022-08-10T06:27:57.841Z,1014.73
2022-08-10T06:29:03.015Z,1014.71
2022-08-10T06:29:57.842Z,1014.75
2022-08-10T06:30:58.092Z,1014.75
2022-08-10T06:31:57.815Z,1014.74
2022-08-10T06:32:57.816Z,1014.78
2022-08-10T06:33:57.829Z,1014.78
2022-08-10T06:34:57.852Z,1014.78
2022-08-10T06:35:57.785Z,1014.76
2022-08-10T06:36:57.811Z,1014.84
2022-08-10T06:37:57.771Z,1014.78
2022-08-10T06:39:16.692Z,1014.80
2022-08-10T06:39:57.991Z,1014.79
2022-08-10T06:40:57.971Z,1014.81
2022-08-10T06:42:16.328Z,1014.82
2022-08-10T06:42:58.083Z,1014.79
2022-08-10T06:43:57.791Z,1014.85
2022-08-10T06:44:57.764Z,1014.85
2022-08-10T06:46:07.777Z,1014.81
2022-08-10T06:46:57.711Z,1014.78
2022-08-10T06:47:58.315Z,1014.82
2022-08-10T06:48:57.881Z,1014.81
2022-08-10T06:49:59.808Z,1014.84
2022-08-10T06:50:59.140Z,1014.82
2022-08-10T06:51:57.775Z,1014.76
2022-08-10T06:52:58.261Z,1014.73
2022-08-10T06:53:58.550Z,1014.78
2022-08-10T06:54:57.860Z,1014.73
2022-08-10T06:55:57.740Z,1014.76
2022-08-10T06:57:17.365Z,1014.73
2022-08-10T06:58:00.118Z,1014.77
2022-08-10T06:58:57.629Z,1014.79
2022-08-10T06:59:58.469Z,1014.80
2022-08-10T07:00:57.669Z,1014.81
2022-08-10T07:01:57.610Z,1014.75
2022-08-10T07:02:57.621Z,1014.79
2022-08-10T07:03:57.929Z,1014.78
2022-08-10T07:04:57.625Z,1014.73
2022-08-10T07:05:57.580Z,1014.72
2022-08-10T07:06:57.578Z,1014.73
2022-08-10T07:07:57.578Z,1014.74
2022-08-10T07:08:57.721Z,1014.76
2022-08-10T07:09:57.560Z,1014.69
2022-08-10T07:10:57.560Z,1014.67
2022-08-10T07:11:57.969Z,1014.75
2022-08-10T07:12:57.538Z,1014.75
2022-08-10T07:14:16.213Z,1014.72
2022-08-10T07:14:57.548Z,1014.74
2022-08-10T07:16:00.160Z,1014.69
2022-08-10T07:16:57.511Z,1014.67
2022-08-10T07:17:57.501Z,1014.66
2022-08-10T07:18:57.490Z,1014.62
2022-08-10T07:19:57.500Z,1014.66
2022-08-10T07:20:57.486Z,1014.69
2022-08-10T07:21:58.159Z,1014.68
2022-08-10T07:23:01.206Z,1014.64
2022-08-10T07:24:00.640Z,1014.60
2022-08-10T07:24:57.481Z,1014.63
2022-08-10T07:25:58.139Z,1014.60
2022-08-10T07:26:57.454Z,1014.64
2022-08-10T07:27:58.619Z,1014.62
2022-08-10T07:28:57.429Z,1014.61
2022-08-10T07:29:57.441Z,1014.61
2022-08-10T07:30:57.417Z,1014.64
2022-08-10T07:31:57.934Z,1014.61
2022-08-10T07:32:57.811Z,1014.64
2022-08-10T07:33:57.447Z,1014.56
2022-08-10T07:34:57.414Z,1014.60
2022-08-10T07:35:57.439Z,1014.65
2022-08-10T07:36:57.388Z,1014.55
2022-08-10T07:37:57.358Z,1014.60
2022-08-10T07:38:57.358Z,1014.57
2022-08-10T07:39:58.475Z,1014.60
2022-08-10T07:40:57.399Z,1014.55
2022-08-10T07:41:57.349Z,1014.57
2022-08-10T07:42:57.331Z,1014.55
2022-08-10T07:43:57.341Z,1014.55
2022-08-10T07:44:57.335Z,1014.59
2022-08-10T07:45:57.469Z,1014.59
2022-08-10T07:46:57.307Z,1014.60
2022-08-10T07:47:57.312Z,1014.57
2022-08-10T07:48:57.290Z,1014.64
2022-08-10T07:49:57.287Z,1014.57
2022-08-10T07:50:57.299Z,1014.58
2022-08-10T07:51:57.293Z,1014.60
2022-08-10T07:52:57.269Z,1014.56
2022-08-10T07:53:57.258Z,1014.62
2022-08-10T07:54:57.257Z,1014.64
2022-08-10T07:56:03.662Z,1014.65
2022-08-10T07:56:57.267Z,1014.61
2022-08-10T07:57:57.248Z,1014.58
2022-08-10T07:58:57.226Z,1014.68
2022-08-10T07:59:57.218Z,1014.64
2022-08-10T08:00:57.239Z,1014.62
2022-08-10T08:01:57.243Z,1014.65
2022-08-10T08:02:57.211Z,1014.65
2022-08-10T08:04:05.758Z,1014.63
2022-08-10T08:04:57.817Z,1014.61
2022-08-10T08:06:02.621Z,1014.62
2022-08-10T08:06:57.179Z,1014.64
2022-08-10T08:07:57.167Z,1014.64
2022-08-10T08:08:57.207Z,1014.61
2022-08-10T08:10:00.968Z,1014.61
2022-08-10T08:10:57.156Z,1014.58
2022-08-10T08:11:57.146Z,1014.63
2022-08-10T08:12:57.138Z,1014.64
2022-08-10T08:13:57.143Z,1014.63
2022-08-10T08:14:57.134Z,1014.63
2022-08-10T08:16:19.613Z,1014.62
2022-08-10T08:16:57.107Z,1014.63
2022-08-10T08:17:57.478Z,1014.65
2022-08-10T08:19:57.099Z,1014.69
2022-08-10T08:20:57.087Z,1014.69
2022-08-10T08:24:06.310Z,1014.59
2022-08-10T08:24:07.807Z,1014.63
2022-08-10T08:24:10.685Z,1014.60
2022-08-10T08:24:57.058Z,1014.61
2022-08-10T08:25:57.116Z,1014.59
2022-08-10T08:26:57.049Z,1014.60
2022-08-10T08:27:57.036Z,1014.59
2022-08-10T08:28:57.027Z,1014.61
2022-08-10T08:29:57.046Z,1014.55
2022-08-10T08:30:57.197Z,1014.57
2022-08-10T08:32:01.707Z,1014.55
2022-08-10T08:32:57.005Z,1014.59
2022-08-10T08:33:56.998Z,1014.61
2022-08-10T08:34:56.986Z,1014.57
2022-08-10T08:35:57.132Z,1014.54
2022-08-10T08:36:59.581Z,1014.57
2022-08-10T08:38:33.027Z,1014.54
2022-08-10T08:38:56.965Z,1014.52
2022-08-10T08:39:56.958Z,1014.50
2022-08-10T08:40:56.977Z,1014.58
2022-08-10T08:41:56.956Z,1014.57
2022-08-10T08:42:56.927Z,1014.55
2022-08-10T08:43:56.934Z,1014.52
2022-08-10T08:44:56.926Z,1014.53
2022-08-10T08:46:01.434Z,1014.53
2022-08-10T08:46:59.180Z,1014.52
2022-08-10T08:48:05.472Z,1014.55
2022-08-10T08:48:56.898Z,1014.55
2022-08-10T08:50:08.648Z,1014.54
2022-08-10T08:50:57.837Z,1014.52
2022-08-10T08:52:07.390Z,1014.52
2022-08-10T08:52:56.867Z,1014.50
2022-08-10T08:54:02.818Z,1014.50
2022-08-10T08:54:56.848Z,1014.49
2022-08-10T08:56:05.654Z,1014.46
2022-08-10T08:56:56.857Z,1014.42
2022-08-10T08:57:56.837Z,1014.46
2022-08-10T08:58:56.827Z,1014.45
2022-08-10T08:59:56.828Z,1014.47
2022-08-10T09:00:56.827Z,1014.42
2022-08-10T09:01:56.842Z,1014.40
2022-08-10T09:02:56.808Z,1014.41
2022-08-10T09:03:56.807Z,1014.42
2022-08-10T09:04:56.787Z,1014.41
2022-08-10T09:05:59.565Z,1014.41
2022-08-10T09:06:56.777Z,1014.39
2022-08-10T09:08:02.194Z,1014.41
2022-08-10T09:08:56.772Z,1014.38
2022-08-10T09:09:56.762Z,1014.37
2022-08-10T09:10:56.756Z,1014.36
2022-08-10T09:11:56.758Z,1014.26
2022-08-10T09:12:56.737Z,1014.28
2022-08-10T09:13:56.820Z,1014.30
2022-08-10T09:14:56.716Z,1014.33
2022-08-10T09:16:00.679Z,1014.35
2022-08-10T09:16:56.728Z,1014.33
2022-08-10T09:17:56.706Z,1014.30
2022-08-10T09:18:56.725Z,1014.27
2022-08-10T09:19:56.694Z,1014.24
2022-08-10T09:20:56.676Z,1014.27
2022-08-10T09:22:13.215Z,1014.22
2022-08-10T09:22:57.730Z,1014.28
2022-08-10T09:24:05.531Z,1014.25
2022-08-10T09:24:56.649Z,1014.28
2022-08-10T09:25:56.897Z,1014.21
2022-08-10T09:26:56.642Z,1014.19
2022-08-10T09:27:56.691Z,1014.19
2022-08-10T09:29:12.538Z,1014.11
2022-08-10T09:29:56.628Z,1014.05
2022-08-10T09:31:20.865Z,1014.12
2022-08-10T09:36:14.575Z,1014.07
2022-08-10T09:36:16.445Z,1014.10
2022-08-10T09:36:19.532Z,1014.03
2022-08-10T09:36:23.503Z,1014.05
2022-08-10T09:36:25.387Z,1014.06
2022-08-10T09:36:56.589Z,1014.02
2022-08-10T09:38:01.798Z,1014.07
2022-08-10T09:38:56.585Z,1013.99
2022-08-10T09:40:55.867Z,1014.00
2022-08-10T09:41:02.975Z,1013.99
2022-08-10T09:41:56.564Z,1014.00
2022-08-10T09:43:21.529Z,1014.02
2022-08-10T09:43:56.580Z,1013.95
2022-08-10T09:44:57.992Z,1013.93
2022-08-10T09:45:56.517Z,1013.90
2022-08-10T09:46:56.519Z,1013.92
2022-08-10T09:48:01.237Z,1013.89
2022-08-10T09:48:56.557Z,1013.84
2022-08-10T09:50:00.894Z,1013.89
2022-08-10T09:51:34.901Z,1013.87
2022-08-10T09:51:56.487Z,1013.86
2022-08-10T09:52:58.637Z,1013.89
2022-08-10T09:53:56.476Z,1013.87
2022-08-10T09:54:56.458Z,1013.79
2022-08-10T09:56:18.316Z,1013.75
2022-08-10T09:57:07.146Z,1013.78
2022-08-10T09:57:56.944Z,1013.79
2022-08-10T09:59:26.714Z,1013.84
2022-08-10T10:00:00.002Z,1013.80
2022-08-10T10:00:57.088Z,1013.77
2022-08-10T10:02:02.998Z,1013.80
2022-08-10T10:02:56.499Z,1013.82
2022-08-10T10:03:56.446Z,1013.76
2022-08-10T10:04:56.441Z,1013.80
2022-08-10T10:05:56.389Z,1013.71
2022-08-10T10:06:56.377Z,1013.73
2022-08-10T10:07:56.386Z,1013.66
2022-08-10T10:08:58.453Z,1013.67
2022-08-10T10:09:56.369Z,1013.66
2022-08-10T10:10:56.349Z,1013.63
2022-08-10T10:11:56.359Z,1013.66
2022-08-10T10:12:56.367Z,1013.66
2022-08-10T10:14:02.634Z,1013.60
2022-08-10T10:14:56.336Z,1013.58
2022-08-10T10:15:57.317Z,1013.60
2022-08-10T10:16:57.248Z,1013.60
2022-08-10T10:17:56.317Z,1013.63
2022-08-10T10:18:56.347Z,1013.56
2022-08-10T10:19:56.397Z,1013.58
2022-08-10T10:20:56.303Z,1013.55
2022-08-10T10:21:56.831Z,1013.58
2022-08-10T10:22:56.276Z,1013.62
2022-08-10T10:24:22.299Z,1013.58
2022-08-10T10:24:56.280Z,1013.50
2022-08-10T10:26:01.333Z,1013.56
2022-08-10T10:26:56.272Z,1013.47
2022-08-10T10:27:56.274Z,1013.51
2022-08-10T10:29:59.354Z,1013.46
2022-08-10T10:30:56.219Z,1013.50
2022-08-10T10:31:56.225Z,1013.46
2022-08-10T10:32:58.340Z,1013.48
2022-08-10T10:33:56.226Z,1013.43
2022-08-10T10:34:56.199Z,1013.48
2022-08-10T10:35:56.198Z,1013.47
2022-08-10T10:36:56.197Z,1013.45
2022-08-10T10:38:01.860Z,1013.39
2022-08-10T10:38:56.179Z,1013.43
2022-08-10T10:39:56.260Z,1013.44
2022-08-10T10:40:56.185Z,1013.49
2022-08-10T10:42:04.523Z,1013.47
2022-08-10T10:42:56.149Z,1013.50
2022-08-10T10:43:56.891Z,1013.47
2022-08-10T10:44:56.149Z,1013.48
2022-08-10T10:45:56.137Z,1013.51
2022-08-10T10:46:56.128Z,1013.49
2022-08-10T10:47:56.157Z,1013.50
2022-08-10T10:48:56.277Z,1013.52
2022-08-10T10:49:56.108Z,1013.52
2022-08-10T10:50:56.098Z,1013.51
2022-08-10T10:51:56.096Z,1013.46
2022-08-10T10:52:56.110Z,1013.48
2022-08-10T10:53:56.077Z,1013.46
2022-08-10T10:54:56.069Z,1013.35
2022-08-10T10:56:14.551Z,1013.41
2022-08-10T10:56:56.058Z,1013.43
2022-08-10T10:57:58.771Z,1013.38
2022-08-10T10:58:56.045Z,1013.30
2022-08-10T10:59:57.645Z,1013.32
2022-08-10T11:00:56.077Z,1013.30
2022-08-10T11:01:56.030Z,1013.53
2022-08-10T11:02:56.038Z,1013.50
2022-08-10T11:03:56.017Z,1013.54
2022-08-10T11:04:57.470Z,1013.49
2022-08-10T11:05:56.164Z,1013.51
2022-08-10T11:06:55.998Z,1013.53
2022-08-10T11:07:56.830Z,1013.51
2022-08-10T11:08:56.014Z,1013.53
2022-08-10T11:10:07.018Z,1013.53
2022-08-10T11:10:56.444Z,1013.45
2022-08-10T11:12:00.347Z,1013.39
2022-08-10T11:12:55.979Z,1013.37
2022-08-10T11:14:24.597Z,1013.30
2022-08-10T11:14:55.946Z,1013.22
2022-08-10T11:15:55.950Z,1013.12
2022-08-10T11:16:58.575Z,1013.08
2022-08-10T11:17:56.072Z,1013.08
2022-08-10T11:18:55.953Z,1013.06
2022-08-10T11:20:02.054Z,1013.00
2022-08-10T11:20:55.917Z,1013.00
2022-08-10T11:21:55.911Z,1012.90
2022-08-10T11:22:55.920Z,1012.91
2022-08-10T11:24:48.748Z,1012.89
2022-08-10T11:24:56.369Z,1012.91
2022-08-10T11:25:55.880Z,1012.88
2022-08-10T11:26:55.880Z,1012.87
2022-08-10T11:27:55.889Z,1012.73
2022-08-10T11:28:55.868Z,1012.77
2022-08-10T11:29:55.894Z,1012.71
2022-08-10T11:30:55.850Z,1012.72
2022-08-10T11:31:55.859Z,1012.68
2022-08-10T11:32:55.850Z,1012.70
2022-08-10T11:35:10.163Z,1012.57
2022-08-10T11:35:55.831Z,1012.59
2022-08-10T11:36:55.831Z,1012.55
2022-08-10T11:38:31.469Z,1012.50
2022-08-10T11:39:13.473Z,1012.52
2022-08-10T11:39:55.876Z,1012.49
2022-08-10T11:40:55.799Z,1012.45
2022-08-10T11:42:11.751Z,1012.52
2022-08-10T11:42:55.799Z,1012.52
2022-08-10T11:43:55.779Z,1012.56
2022-08-10T11:44:55.802Z,1012.52
2022-08-10T11:45:55.807Z,1012.52
2022-08-10T11:46:55.769Z,1012.46
2022-08-10T11:47:55.803Z,1012.43
2022-08-10T11:48:57.873Z,1012.43
2022-08-10T11:49:55.748Z,1012.43
2022-08-10T11:50:55.751Z,1012.39
2022-08-10T11:51:55.739Z,1012.34
2022-08-10T11:52:55.759Z,1012.30
2022-08-10T11:53:55.748Z,1012.32
2022-08-10T11:54:55.719Z,1012.27
2022-08-10T11:55:55.719Z,1012.27
2022-08-10T11:57:01.775Z,1012.28
2022-08-10T11:57:55.985Z,1012.25
2022-08-10T11:58:55.710Z,1012.26
2022-08-10T11:59:57.888Z,1012.27
2022-08-10T12:00:55.700Z,1012.23
2022-08-10T12:01:55.711Z,1012.26
2022-08-10T12:02:55.772Z,1012.26
2022-08-10T12:03:55.669Z,1012.18
2022-08-10T12:04:56.310Z,1012.12
2022-08-10T12:05:55.678Z,1012.18
2022-08-10T12:06:56.596Z,1012.15
2022-08-10T12:10:08.932Z,1012.09